KMMI/MMI METAR and TAF weather

Enter ICAO airport designator
Station Type Date Time Source
KMMI METAR 2019/06/06 20:20 UTC NOAA

KMMI 062020Z AUTO 00000KT 10SM FEW025 SCT045 BKN070 24/22 A2991 RMK A01


Station Type Date Time Source
KMMI Decoded METAR 2019/06/06 20:20 UTC NOAA

Station name not available
Jun 06, 2019 - 04:20 PM EDT / 2019.06.06 2020 UTC
Wind: Calm:0
Visibility: 10 mile(s):0
Sky conditions: mostly cloudy
Temperature: 75 F (24 C)
Dew Point: 71 F (22 C)
Relative Humidity: 88%
Pressure (altimeter): 29.91 in. Hg (1012 hPa)
ob: KMMI 062020Z AUTO 00000KT 10SM FEW025 SCT045 BKN070 24/22 A2991 RMK A01
cycle: 20

Station Type Date Time Source
KMMI TAF UTC NOAA

Error!

Example: see airport list